sensor_id;sensor_type;location;lat;lon;timestamp;temperature;humidity
53776;DHT22;44276;49.534;6.378;2022-12-15T00:00:24;-4.90;99.90
53776;DHT22;44276;49.534;6.378;2022-12-15T00:03:10;-5.10;99.90
53776;DHT22;44276;49.534;6.378;2022-12-15T00:05:59;-5.20;99.90
53776;DHT22;44276;49.534;6.378;2022-12-15T00:08:45;-5.30;99.90
53776;DHT22;44276;49.534;6.378;2022-12-15T00:11:38;-5.40;99.90
53776;DHT22;44276;49.534;6.378;2022-12-15T00:14:24;-5.50;99.90
53776;DHT22;44276;49.534;6.378;2022-12-15T00:17:11;-5.50;99.90
53776;DHT22;44276;49.534;6.378;2022-12-15T00:19:56;-5.60;99.90
53776;DHT22;44276;49.534;6.378;2022-12-15T00:22:42;-5.60;99.90
53776;DHT22;44276;49.534;6.378;2022-12-15T00:25:28;-5.70;99.90
53776;DHT22;44276;49.534;6.378;2022-12-15T00:28:14;-5.80;99.90
53776;DHT22;44276;49.534;6.378;2022-12-15T00:30:59;-5.80;99.90
53776;DHT22;44276;49.534;6.378;2022-12-15T00:33:49;-5.90;99.90
53776;DHT22;44276;49.534;6.378;2022-12-15T00:36:35;-6.00;99.90
53776;DHT22;44276;49.534;6.378;2022-12-15T00:39:21;-6.00;99.90
53776;DHT22;44276;49.534;6.378;2022-12-15T00:41:49;-6.10;99.90
53776;DHT22;44276;49.534;6.378;2022-12-15T00:44:18;-6.10;99.90
53776;DHT22;44276;49.534;6.378;2022-12-15T00:46:46;-6.10;99.90
53776;DHT22;44276;49.534;6.378;2022-12-15T00:49:22;-6.00;99.90
53776;DHT22;44276;49.534;6.378;2022-12-15T00:52:16;-6.00;99.90
53776;DHT22;44276;49.534;6.378;2022-12-15T00:55:03;-6.10;99.90
53776;DHT22;44276;49.534;6.378;2022-12-15T00:57:49;-6.30;99.90
53776;DHT22;44276;49.534;6.378;2022-12-15T01:00:35;-6.20;99.90
53776;DHT22;44276;49.534;6.378;2022-12-15T01:03:22;-6.20;99.90
53776;DHT22;44276;49.534;6.378;2022-12-15T01:06:11;-6.10;99.90
53776;DHT22;44276;49.534;6.378;2022-12-15T01:08:59;-6.20;99.90
53776;DHT22;44276;49.534;6.378;2022-12-15T01:11:45;-6.30;99.90
53776;DHT22;44276;49.534;6.378;2022-12-15T01:14:32;-6.30;99.90
53776;DHT22;44276;49.534;6.378;2022-12-15T01:17:18;-6.40;99.90
53776;DHT22;44276;49.534;6.378;2022-12-15T01:20:06;-6.30;99.90
53776;DHT22;44276;49.534;6.378;2022-12-15T01:22:46;-6.30;99.90
53776;DHT22;44276;49.534;6.378;2022-12-15T01:25:17;-6.30;99.90
53776;DHT22;44276;49.534;6.378;2022-12-15T01:27:47;-6.30;99.90
53776;DHT22;44276;49.534;6.378;2022-12-15T01:30:18;-6.40;99.90
53776;DHT22;44276;49.534;6.378;2022-12-15T01:32:47;-6.50;99.90
53776;DHT22;44276;49.534;6.378;2022-12-15T01:35:16;-6.50;99.90
53776;DHT22;44276;49.534;6.378;2022-12-15T01:37:47;-6.50;99.90
53776;DHT22;44276;49.534;6.378;2022-12-15T01:40:18;-6.60;99.90
53776;DHT22;44276;49.534;6.378;2022-12-15T01:43:11;-6.50;99.90
53776;DHT22;44276;49.534;6.378;2022-12-15T01:45:56;-6.50;99.90
53776;DHT22;44276;49.534;6.378;2022-12-15T01:48:33;-6.50;99.90
53776;DHT22;44276;49.534;6.378;2022-12-15T01:51:10;-6.50;99.90
53776;DHT22;44276;49.534;6.378;2022-12-15T01:53:47;-6.60;99.90
53776;DHT22;44276;49.534;6.378;2022-12-15T01:56:22;-6.60;99.90
53776;DHT22;44276;49.534;6.378;2022-12-15T01:58:58;-6.70;99.90
53776;DHT22;44276;49.534;6.378;2022-12-15T02:01:31;-6.80;99.90
53776;DHT22;44276;49.534;6.378;2022-12-15T02:04:02;-6.90;99.90
53776;DHT22;44276;49.534;6.378;2022-12-15T02:06:31;-6.80;99.90
53776;DHT22;44276;49.534;6.378;2022-12-15T02:09:01;-6.70;99.90
53776;DHT22;44276;49.534;6.378;2022-12-15T02:11:53;-6.70;99.90
53776;DHT22;44276;49.534;6.378;2022-12-15T02:14:44;-6.70;99.90
53776;DHT22;44276;49.534;6.378;2022-12-15T02:17:27;-6.70;99.90
53776;DHT22;44276;49.534;6.378;2022-12-15T02:20:34;-6.80;99.90
53776;DHT22;44276;49.534;6.378;2022-12-15T02:30:19;-6.90;99.90
53776;DHT22;44276;49.534;6.378;2022-12-15T02:33:04;-6.90;99.90
53776;DHT22;44276;49.534;6.378;2022-12-15T02:35:46;-7.20;99.90
53776;DHT22;44276;49.534;6.378;2022-12-15T02:38:28;-7.30;99.90
53776;DHT22;44276;49.534;6.378;2022-12-15T02:40:59;-7.30;99.90
53776;DHT22;44276;49.534;6.378;2022-12-15T02:43:29;-7.20;99.90
53776;DHT22;44276;49.534;6.378;2022-12-15T02:46:13;-7.00;99.90
53776;DHT22;44276;49.534;6.378;2022-12-15T02:48:58;-7.10;99.90
53776;DHT22;44276;49.534;6.378;2022-12-15T02:51:43;-7.10;99.90
53776;DHT22;44276;49.534;6.378;2022-12-15T02:54:30;-7.20;99.90
53776;DHT22;44276;49.534;6.378;2022-12-15T02:57:11;-7.20;99.90
53776;DHT22;44276;49.534;6.378;2022-12-15T02:59:51;-7.20;99.90
53776;DHT22;44276;49.534;6.378;2022-12-15T03:02:28;-7.20;99.90
53776;DHT22;44276;49.534;6.378;2022-12-15T03:05:00;-7.30;99.90
53776;DHT22;44276;49.534;6.378;2022-12-15T03:07:29;-7.20;99.90
53776;DHT22;44276;49.534;6.378;2022-12-15T03:10:00;-7.20;99.90
53776;DHT22;44276;49.534;6.378;2022-12-15T03:12:31;-7.20;99.90
53776;DHT22;44276;49.534;6.378;2022-12-15T03:14:59;-7.20;99.90
53776;DHT22;44276;49.534;6.378;2022-12-15T03:17:29;-7.30;99.90
53776;DHT22;44276;49.534;6.378;2022-12-15T03:19:57;-7.40;99.90
53776;DHT22;44276;49.534;6.378;2022-12-15T03:22:32;-7.40;99.90
53776;DHT22;44276;49.534;6.378;2022-12-15T03:25:04;-7.40;99.90
53776;DHT22;44276;49.534;6.378;2022-12-15T03:27:34;-7.40;99.90
53776;DHT22;44276;49.534;6.378;2022-12-15T03:30:05;-7.40;99.90
53776;DHT22;44276;49.534;6.378;2022-12-15T03:32:35;-7.40;99.90
53776;DHT22;44276;49.534;6.378;2022-12-15T03:35:04;-7.30;99.90
53776;DHT22;44276;49.534;6.378;2022-12-15T03:37:34;-7.00;99.90
53776;DHT22;44276;49.534;6.378;2022-12-15T03:40:02;-7.00;99.90
53776;DHT22;44276;49.534;6.378;2022-12-15T03:42:31;-6.90;99.90
53776;DHT22;44276;49.534;6.378;2022-12-15T03:45:15;-6.80;99.90
53776;DHT22;44276;49.534;6.378;2022-12-15T03:47:47;-6.60;99.90
53776;DHT22;44276;49.534;6.378;2022-12-15T03:50:18;-6.50;99.90
53776;DHT22;44276;49.534;6.378;2022-12-15T03:52:52;-6.50;99.90
53776;DHT22;44276;49.534;6.378;2022-12-15T03:55:22;-6.50;99.90
53776;DHT22;44276;49.534;6.378;2022-12-15T03:57:52;-6.70;99.90
53776;DHT22;44276;49.534;6.378;2022-12-15T04:00:21;-6.80;99.90
53776;DHT22;44276;49.534;6.378;2022-12-15T04:02:52;-6.80;99.90
53776;DHT22;44276;49.534;6.378;2022-12-15T04:05:23;-7.00;99.90
53776;DHT22;44276;49.534;6.378;2022-12-15T04:07:53;-7.10;99.90
53776;DHT22;44276;49.534;6.378;2022-12-15T04:10:22;-7.10;99.90
53776;DHT22;44276;49.534;6.378;2022-12-15T04:12:59;-7.10;99.90
53776;DHT22;44276;49.534;6.378;2022-12-15T04:15:29;-7.30;99.90
53776;DHT22;44276;49.534;6.378;2022-12-15T04:17:59;-7.60;99.90
53776;DHT22;44276;49.534;6.378;2022-12-15T04:20:28;-7.70;99.90
53776;DHT22;44276;49.534;6.378;2022-12-15T04:22:57;-7.70;99.90
53776;DHT22;44276;49.534;6.378;2022-12-15T04:25:26;-7.60;99.90
53776;DHT22;44276;49.534;6.378;2022-12-15T04:28:12;-7.70;99.90
53776;DHT22;44276;49.534;6.378;2022-12-15T04:31:01;-7.70;99.90
53776;DHT22;44276;49.534;6.378;2022-12-15T04:34:25;-7.70;99.90
53776;DHT22;44276;49.534;6.378;2022-12-15T04:37:11;-7.70;99.90
53776;DHT22;44276;49.534;6.378;2022-12-15T04:39:58;-7.50;99.90
53776;DHT22;44276;49.534;6.378;2022-12-15T04:42:45;-7.30;99.90
53776;DHT22;44276;49.534;6.378;2022-12-15T04:45:32;-7.00;99.90
53776;DHT22;44276;49.534;6.378;2022-12-15T04:48:18;-6.80;99.90
53776;DHT22;44276;49.534;6.378;2022-12-15T04:51:05;-6.60;99.90
53776;DHT22;44276;49.534;6.378;2022-12-15T04:53:51;-6.60;99.90
53776;DHT22;44276;49.534;6.378;2022-12-15T04:56:37;-6.50;99.90
53776;DHT22;44276;49.534;6.378;2022-12-15T04:59:22;-6.60;99.90
53776;DHT22;44276;49.534;6.378;2022-12-15T05:02:08;-6.50;99.90
53776;DHT22;44276;49.534;6.378;2022-12-15T05:04:54;-6.50;99.90
53776;DHT22;44276;49.534;6.378;2022-12-15T05:07:42;-6.50;99.90
53776;DHT22;44276;49.534;6.378;2022-12-15T05:10:27;-6.60;99.90
53776;DHT22;44276;49.534;6.378;2022-12-15T05:13:13;-6.60;99.90
53776;DHT22;44276;49.534;6.378;2022-12-15T05:16:00;-6.70;99.90
53776;DHT22;44276;49.534;6.378;2022-12-15T05:18:46;-6.70;99.90
53776;DHT22;44276;49.534;6.378;2022-12-15T05:21:32;-6.70;99.90
53776;DHT22;44276;49.534;6.378;2022-12-15T05:24:20;-6.70;99.90
53776;DHT22;44276;49.534;6.378;2022-12-15T05:27:06;-6.70;99.90
53776;DHT22;44276;49.534;6.378;2022-12-15T05:29:52;-6.60;99.90
53776;DHT22;44276;49.534;6.378;2022-12-15T05:32:37;-6.40;99.90
53776;DHT22;44276;49.534;6.378;2022-12-15T05:35:06;-6.30;99.90
53776;DHT22;44276;49.534;6.378;2022-12-15T05:37:34;-6.30;99.90
53776;DHT22;44276;49.534;6.378;2022-12-15T05:40:05;-6.30;99.90
53776;DHT22;44276;49.534;6.378;2022-12-15T05:42:35;-6.30;99.90
53776;DHT22;44276;49.534;6.378;2022-12-15T05:45:03;-6.30;99.90
53776;DHT22;44276;49.534;6.378;2022-12-15T05:47:32;-6.30;99.90
53776;DHT22;44276;49.534;6.378;2022-12-15T05:50:01;-6.40;99.90
53776;DHT22;44276;49.534;6.378;2022-12-15T05:52:30;-6.60;99.90
53776;DHT22;44276;49.534;6.378;2022-12-15T05:54:58;-6.80;99.90
53776;DHT22;44276;49.534;6.378;2022-12-15T05:57:28;-6.80;99.90
53776;DHT22;44276;49.534;6.378;2022-12-15T05:59:57;-6.80;99.90
53776;DHT22;44276;49.534;6.378;2022-12-15T06:02:27;-6.70;99.90
53776;DHT22;44276;49.534;6.378;2022-12-15T06:04:55;-6.50;99.90
53776;DHT22;44276;49.534;6.378;2022-12-15T06:07:24;-6.40;99.90
53776;DHT22;44276;49.534;6.378;2022-12-15T06:09:53;-6.30;99.90
53776;DHT22;44276;49.534;6.378;2022-12-15T06:12:21;-6.50;99.90
53776;DHT22;44276;49.534;6.378;2022-12-15T06:14:51;-6.80;99.90
53776;DHT22;44276;49.534;6.378;2022-12-15T06:17:19;-7.00;99.90
53776;DHT22;44276;49.534;6.378;2022-12-15T06:19:47;-7.10;99.90
53776;DHT22;44276;49.534;6.378;2022-12-15T06:22:16;-7.30;99.90
53776;DHT22;44276;49.534;6.378;2022-12-15T06:24:44;-7.50;99.90
53776;DHT22;44276;49.534;6.378;2022-12-15T06:27:12;-7.70;99.90
53776;DHT22;44276;49.534;6.378;2022-12-15T06:29:41;-7.80;99.90
53776;DHT22;44276;49.534;6.378;2022-12-15T06:32:10;-7.70;99.90
53776;DHT22;44276;49.534;6.378;2022-12-15T06:34:39;-7.60;99.90
53776;DHT22;44276;49.534;6.378;2022-12-15T06:37:07;-7.60;99.90
53776;DHT22;44276;49.534;6.378;2022-12-15T06:39:36;-7.50;99.90
53776;DHT22;44276;49.534;6.378;2022-12-15T06:42:04;-7.20;99.90
53776;DHT22;44276;49.534;6.378;2022-12-15T06:44:33;-7.00;99.90
53776;DHT22;44276;49.534;6.378;2022-12-15T06:47:01;-7.00;99.90
53776;DHT22;44276;49.534;6.378;2022-12-15T06:49:31;-7.30;99.90
53776;DHT22;44276;49.534;6.378;2022-12-15T06:52:00;-7.50;99.90
53776;DHT22;44276;49.534;6.378;2022-12-15T06:54:28;-7.60;99.90
53776;DHT22;44276;49.534;6.378;2022-12-15T06:56:56;-7.60;99.90
53776;DHT22;44276;49.534;6.378;2022-12-15T06:59:25;-7.70;99.90
53776;DHT22;44276;49.534;6.378;2022-12-15T07:01:53;-7.70;99.90
53776;DHT22;44276;49.534;6.378;2022-12-15T07:04:22;-7.80;99.90
53776;DHT22;44276;49.534;6.378;2022-12-15T07:06:51;-7.70;99.90
53776;DHT22;44276;49.534;6.378;2022-12-15T07:09:20;-7.70;99.90
53776;DHT22;44276;49.534;6.378;2022-12-15T07:11:48;-7.80;99.90
53776;DHT22;44276;49.534;6.378;2022-12-15T07:14:18;-7.60;99.90
53776;DHT22;44276;49.534;6.378;2022-12-15T07:16:46;-7.30;99.90
53776;DHT22;44276;49.534;6.378;2022-12-15T07:19:14;-6.90;99.90
53776;DHT22;44276;49.534;6.378;2022-12-15T07:21:42;-6.70;99.90
53776;DHT22;44276;49.534;6.378;2022-12-15T07:24:12;-6.70;99.90
53776;DHT22;44276;49.534;6.378;2022-12-15T07:26:41;-6.70;99.90
53776;DHT22;44276;49.534;6.378;2022-12-15T07:29:14;-6.70;99.90
53776;DHT22;44276;49.534;6.378;2022-12-15T07:31:49;-6.60;99.90
53776;DHT22;44276;49.534;6.378;2022-12-15T07:34:17;-6.60;99.90
53776;DHT22;44276;49.534;6.378;2022-12-15T07:36:45;-6.50;99.90
53776;DHT22;44276;49.534;6.378;2022-12-15T07:39:19;-6.40;99.90
53776;DHT22;44276;49.534;6.378;2022-12-15T07:41:48;-6.20;99.90
53776;DHT22;44276;49.534;6.378;2022-12-15T07:44:16;-6.20;99.90
53776;DHT22;44276;49.534;6.378;2022-12-15T07:46:44;-6.20;99.90
53776;DHT22;44276;49.534;6.378;2022-12-15T07:49:15;-6.10;99.90
53776;DHT22;44276;49.534;6.378;2022-12-15T07:51:44;-6.00;99.90
53776;DHT22;44276;49.534;6.378;2022-12-15T07:54:13;-5.90;99.90
53776;DHT22;44276;49.534;6.378;2022-12-15T07:56:44;-5.80;99.90
53776;DHT22;44276;49.534;6.378;2022-12-15T07:59:16;-5.70;99.90
53776;DHT22;44276;49.534;6.378;2022-12-15T08:01:45;-5.60;99.90
53776;DHT22;44276;49.534;6.378;2022-12-15T08:12:44;-5.30;99.90
53776;DHT22;44276;49.534;6.378;2022-12-15T08:15:12;-5.20;99.90
53776;DHT22;44276;49.534;6.378;2022-12-15T08:17:42;-5.10;99.90
53776;DHT22;44276;49.534;6.378;2022-12-15T08:20:11;-5.20;99.90
53776;DHT22;44276;49.534;6.378;2022-12-15T08:22:40;-5.20;99.90
53776;DHT22;44276;49.534;6.378;2022-12-15T08:25:09;-5.10;99.90
53776;DHT22;44276;49.534;6.378;2022-12-15T08:27:37;-5.00;99.90
53776;DHT22;44276;49.534;6.378;2022-12-15T08:30:09;-5.00;99.90
53776;DHT22;44276;49.534;6.378;2022-12-15T08:32:37;-4.90;99.90
53776;DHT22;44276;49.534;6.378;2022-12-15T08:35:06;-4.80;99.90
53776;DHT22;44276;49.534;6.378;2022-12-15T08:37:55;-4.80;99.90
53776;DHT22;44276;49.534;6.378;2022-12-15T08:40:30;-4.60;99.90
53776;DHT22;44276;49.534;6.378;2022-12-15T08:42:59;-4.50;99.90
53776;DHT22;44276;49.534;6.378;2022-12-15T08:45:29;-4.30;99.90
53776;DHT22;44276;49.534;6.378;2022-12-15T08:47:57;-4.10;99.90
53776;DHT22;44276;49.534;6.378;2022-12-15T08:50:25;-3.80;99.90
53776;DHT22;44276;49.534;6.378;2022-12-15T08:52:53;-3.70;99.90
53776;DHT22;44276;49.534;6.378;2022-12-15T08:55:42;-3.60;99.90
53776;DHT22;44276;49.534;6.378;2022-12-15T08:58:10;-3.50;99.90
53776;DHT22;44276;49.534;6.378;2022-12-15T09:00:40;-3.40;99.90
53776;DHT22;44276;49.534;6.378;2022-12-15T09:03:08;-3.20;99.90
53776;DHT22;44276;49.534;6.378;2022-12-15T09:05:38;-2.80;99.90
53776;DHT22;44276;49.534;6.378;2022-12-15T09:08:06;-2.30;99.90
53776;DHT22;44276;49.534;6.378;2022-12-15T09:10:39;-1.80;99.90
53776;DHT22;44276;49.534;6.378;2022-12-15T09:13:07;-1.00;99.90
53776;DHT22;44276;49.534;6.378;2022-12-15T09:15:36;-0.70;99.90
53776;DHT22;44276;49.534;6.378;2022-12-15T09:18:30;-0.50;99.90
53776;DHT22;44276;49.534;6.378;2022-12-15T09:21:00;-0.40;99.90
53776;DHT22;44276;49.534;6.378;2022-12-15T09:23:29;-0.30;99.90
53776;DHT22;44276;49.534;6.378;2022-12-15T09:25:59;0.20;99.90
53776;DHT22;44276;49.534;6.378;2022-12-15T09:28:28;0.70;99.90
53776;DHT22;44276;49.534;6.378;2022-12-15T09:31:01;1.30;99.90
53776;DHT22;44276;49.534;6.378;2022-12-15T09:33:31;1.90;99.90
53776;DHT22;44276;49.534;6.378;2022-12-15T09:36:00;1.90;77.00
53776;DHT22;44276;49.534;6.378;2022-12-15T09:38:29;1.80;68.70
53776;DHT22;44276;49.534;6.378;2022-12-15T09:40:57;1.90;91.00
53776;DHT22;44276;49.534;6.378;2022-12-15T09:43:36;2.20;75.50
53776;DHT22;44276;49.534;6.378;2022-12-15T09:46:22;2.40;62.50
53776;DHT22;44276;49.534;6.378;2022-12-15T09:48:57;2.70;62.70
53776;DHT22;44276;49.534;6.378;2022-12-15T09:51:34;3.10;46.30
53776;DHT22;44276;49.534;6.378;2022-12-15T09:54:10;3.80;49.70
53776;DHT22;44276;49.534;6.378;2022-12-15T09:56:43;4.50;42.90
53776;DHT22;44276;49.534;6.378;2022-12-15T09:59:25;5.20;41.90
53776;DHT22;44276;49.534;6.378;2022-12-15T10:05:14;5.00;36.00
53776;DHT22;44276;49.534;6.378;2022-12-15T10:08:16;4.70;36.50
53776;DHT22;44276;49.534;6.378;2022-12-15T10:10:52;4.10;39.50
53776;DHT22;44276;49.534;6.378;2022-12-15T10:13:31;4.00;40.60
53776;DHT22;44276;49.534;6.378;2022-12-15T10:16:16;4.50;35.80
53776;DHT22;44276;49.534;6.378;2022-12-15T10:18:58;3.90;34.40
53776;DHT22;44276;49.534;6.378;2022-12-15T10:21:36;2.20;39.20
53776;DHT22;44276;49.534;6.378;2022-12-15T10:24:13;1.30;53.20
53776;DHT22;44276;49.534;6.378;2022-12-15T10:27:15;0.70;54.10
53776;DHT22;44276;49.534;6.378;2022-12-15T10:29:59;0.10;65.00
53776;DHT22;44276;49.534;6.378;2022-12-15T10:32:38;-0.40;80.70
53776;DHT22;44276;49.534;6.378;2022-12-15T10:35:19;-0.60;91.70
53776;DHT22;44276;49.534;6.378;2022-12-15T10:37:51;-0.70;94.20
53776;DHT22;44276;49.534;6.378;2022-12-15T10:40:43;-0.80;94.70
53776;DHT22;44276;49.534;6.378;2022-12-15T10:43:26;-1.00;93.80
53776;DHT22;44276;49.534;6.378;2022-12-15T10:46:02;-0.90;94.90
53776;DHT22;44276;49.534;6.378;2022-12-15T10:48:34;-0.60;90.60
53776;DHT22;44276;49.534;6.378;2022-12-15T10:51:21;-0.50;84.10
53776;DHT22;44276;49.534;6.378;2022-12-15T10:54:03;-0.10;81.00
53776;DHT22;44276;49.534;6.378;2022-12-15T10:56:46;0.70;62.00
53776;DHT22;44276;49.534;6.378;2022-12-15T10:59:27;1.20;50.10
53776;DHT22;44276;49.534;6.378;2022-12-15T11:02:23;1.00;48.50
53776;DHT22;44276;49.534;6.378;2022-12-15T11:05:02;0.80;53.80
53776;DHT22;44276;49.534;6.378;2022-12-15T11:07:38;0.90;52.30
53776;DHT22;44276;49.534;6.378;2022-12-15T11:10:15;1.20;49.30
53776;DHT22;44276;49.534;6.378;2022-12-15T11:12:58;1.20;50.00
53776;DHT22;44276;49.534;6.378;2022-12-15T11:15:44;1.00;49.80
53776;DHT22;44276;49.534;6.378;2022-12-15T11:18:35;0.50;52.90
53776;DHT22;44276;49.534;6.378;2022-12-15T11:21:10;0.10;60.40
53776;DHT22;44276;49.534;6.378;2022-12-15T11:23:50;-0.10;65.90
53776;DHT22;44276;49.534;6.378;2022-12-15T11:26:33;0.10;66.40
53776;DHT22;44276;49.534;6.378;2022-12-15T11:29:17;0.50;60.00
53776;DHT22;44276;49.534;6.378;2022-12-15T11:31:52;0.20;57.70
53776;DHT22;44276;49.534;6.378;2022-12-15T11:34:22;-0.20;66.30
53776;DHT22;44276;49.534;6.378;2022-12-15T11:36:58;-0.60;71.10
53776;DHT22;44276;49.534;6.378;2022-12-15T11:39:52;-0.90;78.00
53776;DHT22;44276;49.534;6.378;2022-12-15T11:42:41;-1.10;88.70
53776;DHT22;44276;49.534;6.378;2022-12-15T11:45:21;-1.00;90.10
53776;DHT22;44276;49.534;6.378;2022-12-15T11:47:58;-0.60;77.20
53776;DHT22;44276;49.534;6.378;2022-12-15T11:50:39;0.40;55.70
53776;DHT22;44276;49.534;6.378;2022-12-15T11:53:29;0.80;50.60
53776;DHT22;44276;49.534;6.378;2022-12-15T11:56:20;0.90;46.10
53776;DHT22;44276;49.534;6.378;2022-12-15T11:59:27;0.40;48.40
53776;DHT22;44276;49.534;6.378;2022-12-15T12:02:23;-0.10;54.00
53776;DHT22;44276;49.534;6.378;2022-12-15T12:05:25;-0.30;57.80
53776;DHT22;44276;49.534;6.378;2022-12-15T12:08:40;-0.30;57.60
53776;DHT22;44276;49.534;6.378;2022-12-15T12:11:19;-0.40;58.70
53776;DHT22;44276;49.534;6.378;2022-12-15T12:14:05;-0.20;57.60
53776;DHT22;44276;49.534;6.378;2022-12-15T12:16:47;0.10;55.30
53776;DHT22;44276;49.534;6.378;2022-12-15T12:19:25;0.30;49.30
53776;DHT22;44276;49.534;6.378;2022-12-15T12:22:04;-0.30;52.10
53776;DHT22;44276;49.534;6.378;2022-12-15T12:24:42;-0.20;57.80
53776;DHT22;44276;49.534;6.378;2022-12-15T12:27:24;0.20;51.90
53776;DHT22;44276;49.534;6.378;2022-12-15T12:30:02;0.00;52.00
53776;DHT22;44276;49.534;6.378;2022-12-15T12:32:41;-0.50;61.30
53776;DHT22;44276;49.534;6.378;2022-12-15T12:35:22;-0.70;65.10
53776;DHT22;44276;49.534;6.378;2022-12-15T12:38:01;-0.70;72.20
53776;DHT22;44276;49.534;6.378;2022-12-15T12:40:43;-0.70;69.60
53776;DHT22;44276;49.534;6.378;2022-12-15T12:43:29;-0.90;73.90
53776;DHT22;44276;49.534;6.378;2022-12-15T12:46:06;-0.90;77.30
53776;DHT22;44276;49.534;6.378;2022-12-15T12:48:40;-0.60;74.00
53776;DHT22;44276;49.534;6.378;2022-12-15T12:51:23;-0.80;70.80
53776;DHT22;44276;49.534;6.378;2022-12-15T12:53:55;-1.20;77.00
53776;DHT22;44276;49.534;6.378;2022-12-15T12:56:30;-1.30;84.80
53776;DHT22;44276;49.534;6.378;2022-12-15T12:59:03;-1.30;84.30
53776;DHT22;44276;49.534;6.378;2022-12-15T13:01:55;-1.40;81.30
53776;DHT22;44276;49.534;6.378;2022-12-15T13:04:38;-1.50;92.90
53776;DHT22;44276;49.534;6.378;2022-12-15T13:07:28;-1.30;94.80
53776;DHT22;44276;49.534;6.378;2022-12-15T13:10:04;-0.90;90.10
53776;DHT22;44276;49.534;6.378;2022-12-15T13:12:47;-0.70;75.20
53776;DHT22;44276;49.534;6.378;2022-12-15T13:15:32;-0.50;68.90
53776;DHT22;44276;49.534;6.378;2022-12-15T13:18:15;-0.40;65.80
53776;DHT22;44276;49.534;6.378;2022-12-15T13:20:52;-0.40;64.20
53776;DHT22;44276;49.534;6.378;2022-12-15T13:23:35;-0.50;64.10
53776;DHT22;44276;49.534;6.378;2022-12-15T13:26:12;-0.50;66.00
53776;DHT22;44276;49.534;6.378;2022-12-15T13:28:44;-0.50;65.80
53776;DHT22;44276;49.534;6.378;2022-12-15T13:31:29;-0.40;67.60
53776;DHT22;44276;49.534;6.378;2022-12-15T13:34:12;-0.30;68.00
53776;DHT22;44276;49.534;6.378;2022-12-15T13:36:55;-0.20;63.40
53776;DHT22;44276;49.534;6.378;2022-12-15T13:42:43;-0.50;66.40
53776;DHT22;44276;49.534;6.378;2022-12-15T13:45:27;-0.70;74.30
53776;DHT22;44276;49.534;6.378;2022-12-15T13:48:23;-0.80;79.40
53776;DHT22;44276;49.534;6.378;2022-12-15T13:51:31;-0.80;85.30
53776;DHT22;44276;49.534;6.378;2022-12-15T13:54:10;-0.90;80.60
53776;DHT22;44276;49.534;6.378;2022-12-15T13:56:54;-1.00;88.50
53776;DHT22;44276;49.534;6.378;2022-12-15T13:59:39;-1.10;90.90
53776;DHT22;44276;49.534;6.378;2022-12-15T14:02:25;-1.20;94.50
53776;DHT22;44276;49.534;6.378;2022-12-15T14:05:08;-1.30;97.30
53776;DHT22;44276;49.534;6.378;2022-12-15T14:07:44;-1.30;98.10
53776;DHT22;44276;49.534;6.378;2022-12-15T14:10:22;-1.30;98.70
53776;DHT22;44276;49.534;6.378;2022-12-15T14:12:54;-1.30;99.30
53776;DHT22;44276;49.534;6.378;2022-12-15T14:15:27;-1.20;97.00
53776;DHT22;44276;49.534;6.378;2022-12-15T14:18:28;-1.10;95.80
53776;DHT22;44276;49.534;6.378;2022-12-15T14:20:58;-1.00;94.10
53776;DHT22;44276;49.534;6.378;2022-12-15T14:23:39;-1.10;95.70
53776;DHT22;44276;49.534;6.378;2022-12-15T14:26:39;-1.00;95.60
53776;DHT22;44276;49.534;6.378;2022-12-15T14:29:18;-1.10;96.00
53776;DHT22;44276;49.534;6.378;2022-12-15T14:31:49;-1.20;96.60
53776;DHT22;44276;49.534;6.378;2022-12-15T14:34:31;-1.20;98.20
53776;DHT22;44276;49.534;6.378;2022-12-15T14:37:07;-1.30;99.90
53776;DHT22;44276;49.534;6.378;2022-12-15T14:39:41;-1.40;99.90
53776;DHT22;44276;49.534;6.378;2022-12-15T14:42:15;-1.50;99.90
53776;DHT22;44276;49.534;6.378;2022-12-15T14:44:49;-1.60;99.90
53776;DHT22;44276;49.534;6.378;2022-12-15T14:47:25;-1.70;99.90
53776;DHT22;44276;49.534;6.378;2022-12-15T14:49:57;-1.70;99.90
53776;DHT22;44276;49.534;6.378;2022-12-15T14:52:31;-1.70;99.90
53776;DHT22;44276;49.534;6.378;2022-12-15T14:55:29;-1.70;99.90
53776;DHT22;44276;49.534;6.378;2022-12-15T14:58:00;-1.80;99.90
53776;DHT22;44276;49.534;6.378;2022-12-15T15:00:32;-1.70;99.90
53776;DHT22;44276;49.534;6.378;2022-12-15T15:03:20;-1.80;99.90
53776;DHT22;44276;49.534;6.378;2022-12-15T15:05:56;-2.00;99.90
53776;DHT22;44276;49.534;6.378;2022-12-15T15:08:32;-2.10;99.90
53776;DHT22;44276;49.534;6.378;2022-12-15T15:11:22;-2.20;99.90
53776;DHT22;44276;49.534;6.378;2022-12-15T15:13:58;-2.30;99.90
53776;DHT22;44276;49.534;6.378;2022-12-15T15:16:29;-2.30;99.90
53776;DHT22;44276;49.534;6.378;2022-12-15T15:19:00;-2.30;99.90
53776;DHT22;44276;49.534;6.378;2022-12-15T15:21:34;-2.40;99.90
53776;DHT22;44276;49.534;6.378;2022-12-15T15:24:21;-2.50;99.90
53776;DHT22;44276;49.534;6.378;2022-12-15T15:27:24;-2.60;99.90
53776;DHT22;44276;49.534;6.378;2022-12-15T15:30:17;-2.70;99.90
53776;DHT22;44276;49.534;6.378;2022-12-15T15:32:50;-2.80;99.90
53776;DHT22;44276;49.534;6.378;2022-12-15T15:35:21;-2.70;99.90
53776;DHT22;44276;49.534;6.378;2022-12-15T15:37:51;-2.70;99.90
53776;DHT22;44276;49.534;6.378;2022-12-15T15:40:23;-2.70;99.90
53776;DHT22;44276;49.534;6.378;2022-12-15T15:42:57;-2.60;99.90
53776;DHT22;44276;49.534;6.378;2022-12-15T15:45:34;-2.70;99.90
53776;DHT22;44276;49.534;6.378;2022-12-15T15:48:05;-2.70;99.90
53776;DHT22;44276;49.534;6.378;2022-12-15T15:50:37;-2.80;99.90
53776;DHT22;44276;49.534;6.378;2022-12-15T15:53:09;-2.80;99.90
53776;DHT22;44276;49.534;6.378;2022-12-15T15:55:43;-2.90;99.90
53776;DHT22;44276;49.534;6.378;2022-12-15T15:58:15;-2.90;99.90
53776;DHT22;44276;49.534;6.378;2022-12-15T16:00:44;-2.90;99.90
53776;DHT22;44276;49.534;6.378;2022-12-15T16:03:13;-2.90;99.90
53776;DHT22;44276;49.534;6.378;2022-12-15T16:05:42;-3.00;99.90
53776;DHT22;44276;49.534;6.378;2022-12-15T16:08:13;-3.00;99.90
53776;DHT22;44276;49.534;6.378;2022-12-15T16:10:45;-3.00;99.90
53776;DHT22;44276;49.534;6.378;2022-12-15T16:13:18;-2.90;99.90
53776;DHT22;44276;49.534;6.378;2022-12-15T16:15:52;-3.00;99.90
53776;DHT22;44276;49.534;6.378;2022-12-15T16:18:25;-3.00;99.90
53776;DHT22;44276;49.534;6.378;2022-12-15T16:20:53;-3.00;99.90
53776;DHT22;44276;49.534;6.378;2022-12-15T16:23:22;-3.00;99.90
53776;DHT22;44276;49.534;6.378;2022-12-15T16:25:56;-3.00;99.90
53776;DHT22;44276;49.534;6.378;2022-12-15T16:28:29;-3.10;99.90
53776;DHT22;44276;49.534;6.378;2022-12-15T16:31:01;-3.10;99.90
53776;DHT22;44276;49.534;6.378;2022-12-15T16:33:29;-3.10;99.90
53776;DHT22;44276;49.534;6.378;2022-12-15T16:35:59;-3.20;99.90
53776;DHT22;44276;49.534;6.378;2022-12-15T16:38:30;-3.20;99.90
53776;DHT22;44276;49.534;6.378;2022-12-15T16:41:09;-3.20;99.90
53776;DHT22;44276;49.534;6.378;2022-12-15T16:43:42;-3.20;99.90
53776;DHT22;44276;49.534;6.378;2022-12-15T16:46:14;-3.30;99.90
53776;DHT22;44276;49.534;6.378;2022-12-15T16:48:43;-3.30;99.90
53776;DHT22;44276;49.534;6.378;2022-12-15T16:51:25;-3.30;99.90
53776;DHT22;44276;49.534;6.378;2022-12-15T16:53:56;-3.30;99.90
53776;DHT22;44276;49.534;6.378;2022-12-15T16:56:25;-3.30;99.90